Kareha message board

Num Title Posts Last post File size
1: ITT we tell a story seven words at a time only seven words please thank you 17 2024-07-11 19:54 11 kb
2: RARITY IS BEST PONY 12 2024-07-11 19:54 9 kb
3: furry women 6 2024-07-11 19:46 6 kb
4: ITT we post "rabbit rabbit rabbit" the first day of each month 32 2024-07-01 11:24 19 kb
5: 【Food & Drink】 What are you drinking right now? 【Drink Check】【Slice of Life】 5 2024-06-23 20:48 6 kb
6: Kneading tits 16 2024-06-17 15:20 11 kb
7: The 9th Annual Dallas Fruitchan Expo 4 2024-06-15 02:49 6 kb
8: makeing a thread on a ps3 lole 2 2024-06-14 09:50 5 kb
9: Bunny 5 2024-05-26 23:27 6 kb
10: KAOMOJI THREAD 2 2024-05-07 18:38 5 kb
11: why are all of you gay 35 2024-05-04 02:01 19 kb
12: fruit chan 12 2024-05-04 02:00 9 kb
13: 【Contentless】Ctrl+V Thread ~ Post What's In Your Clipboard【ASAP】 80 2024-04-26 03:30 50 kb
14: free hole 6 2024-04-09 17:52 6 kb
15: love 3 2023-11-16 09:36 5 kb
16: free palestine and the masses 4 2023-11-13 15:56 6 kb
17: What’s your favorite DAW? 3 2023-11-01 21:48 5 kb
18: NEW FRIEND BRIMNES 2 2023-10-22 03:01 5 kb
19: new thread 7 2023-10-20 16:45 7 kb
20: Happy 20th Birthday, 4chan 2 2023-10-11 15:08 5 kb
21: 🦊 8 2023-10-03 20:24 7 kb
22: anyone in this thread smoke uhhhhhhhhhhhhh 16 2023-09-14 13:43 11 kb
23: Music Appreciation Thread 2 2023-08-31 23:58 5 kb
24: you guys heard about this 2 2023-08-23 15:03 5 kb
25: fr 1 2023-08-13 01:37 4 kb
26: fr 1 2023-08-13 01:37 4 kb
27: FREE PUNJABI MOVIE 15 2023-08-11 21:48 15 kb
28: palabra del dia 5 2023-08-07 21:29 6 kb
29: penis 5 2023-08-01 20:29 6 kb
30: Hey, quick question: what the fuck 5 2023-08-01 20:29 6 kb
31: i am a HERON. 4 2023-08-01 20:28 6 kb
32: what are you guys doing today 3 2023-07-17 20:44 5 kb
33: Dra/g/on Maid 4 2023-07-15 17:48 6 kb
34: poured coffee on my dick 2 2023-07-10 23:24 5 kb
35: new board - oekaki 8 2023-07-06 20:06 7 kb
36: prenis 25 2023-07-06 18:17 15 kb
37: chicken tendies review 1 2023-07-06 15:29 4 kb
38: swagger on my ass 3 2023-07-06 15:04 5 kb
39: New thread 3 2023-06-22 08:10 5 kb
40: Bingo bango bongo 1 2023-06-18 23:07 4 kb
41: post what you're listening to right now 25 2023-06-15 15:44 17 kb
42: we back and 17 2023-06-13 00:17 11 kb
43: at the bus stop 2 2023-06-06 20:29 5 kb
44: Jerma Thread 4 2023-05-23 07:56 6 kb
45: im drinking a 1 2023-05-14 21:19 4 kb
46: postan from 1 2023-05-12 20:42 4 kb
47: ITT: umafe 14 2023-05-10 23:36 10 kb
48: good mornyan 33 2023-05-10 12:08 17 kb
49: attempt 2 at adding 8ball 19 2023-05-10 10:07 13 kb
50: suggestion thread 17 2023-05-09 01:24 11 kb
51: just played a video game 8 2023-05-08 02:04 7 kb
52: no evil 4 2023-04-27 11:22 6 kb
53: How to Burp 3 2023-04-22 23:05 5 kb
54: jeans thread 9 2023-04-22 21:25 9 kb
55: i cant think 6 2023-04-22 01:08 7 kb
56: Does anyone remember when 3 2023-04-21 15:03 5 kb
57: iof youp smoked weed today 9 2023-04-21 04:50 8 kb
58: posture check 9 2023-04-21 03:23 8 kb
59: fuckin me on dreamcast 7 2023-04-20 15:09 6 kb
60: thank u for the fruit, chan 5 2023-04-20 14:46 6 kb
61: ho chi minh gaming 2 2023-04-20 12:29 5 kb
62: FHCM 3 2023-04-20 16:56 5 kb
63: help me 4 2023-04-20 14:50 7 kb
64: man why you even got to do a thing 20 2023-04-18 11:28 14 kb
65: mountain dew and doritos for breakfast 2 2023-04-18 10:54 5 kb
66: I FEEEL YOU MAHNNN 10 2023-04-17 23:38 8 kb